createdAt,value
2018-12-31T00:00:47.487Z,10.02
2018-12-31T00:01:47.502Z,10.09
2018-12-31T00:03:40.410Z,10.09
2018-12-31T00:04:40.414Z,10.07
2018-12-31T00:06:33.314Z,10.01
2018-12-31T00:07:33.329Z,10.04
2018-12-31T00:09:26.249Z,10.02
2018-12-31T00:10:26.259Z,10.14
2018-12-31T00:12:19.154Z,10.05
2018-12-31T00:13:19.169Z,10.14
2018-12-31T00:15:12.082Z,10.22
2018-12-31T00:16:12.085Z,10.15
2018-12-31T00:18:04.984Z,10.22
2018-12-31T00:19:05.000Z,10.12
2018-12-31T00:20:57.906Z,10.25
2018-12-31T00:21:57.913Z,10.20
2018-12-31T00:23:50.814Z,10.23
2018-12-31T00:24:50.829Z,10.23
2018-12-31T00:26:43.736Z,10.23
2018-12-31T00:27:43.743Z,10.18
2018-12-31T00:29:36.651Z,10.22
2018-12-31T00:30:36.657Z,10.18
2018-12-31T00:32:29.552Z,10.22
2018-12-31T00:33:29.575Z,10.23
2018-12-31T00:35:22.487Z,10.25
2018-12-31T00:36:22.489Z,10.12
2018-12-31T00:38:15.402Z,10.02
2018-12-31T00:39:15.413Z,10.04
2018-12-31T00:41:08.322Z,10.05
2018-12-31T00:42:08.327Z,10.08
2018-12-31T00:44:01.231Z,10.11
2018-12-31T00:45:01.249Z,10.01
2018-12-31T00:46:54.151Z,10.01
2018-12-31T00:47:54.158Z,9.97
2018-12-31T00:49:47.057Z,9.96
2018-12-31T00:50:47.082Z,9.96
2018-12-31T00:52:40.011Z,9.99
2018-12-31T00:53:40.071Z,9.97
2018-12-31T00:55:32.895Z,10.05
2018-12-31T00:56:32.899Z,10.04
2018-12-31T00:58:25.800Z,10.02
2018-12-31T00:59:25.814Z,9.96
2018-12-31T01:01:18.720Z,9.97
2018-12-31T01:02:18.723Z,9.97
2018-12-31T01:04:11.624Z,9.97
2018-12-31T01:05:11.639Z,10.04
2018-12-31T01:07:04.545Z,10.12
2018-12-31T01:08:04.555Z,9.97
2018-12-31T01:09:57.453Z,9.94
2018-12-31T01:10:57.464Z,10.01
2018-12-31T01:12:50.388Z,9.94
2018-12-31T01:13:50.395Z,10.01
2018-12-31T01:15:43.289Z,9.96
2018-12-31T01:16:43.306Z,9.99
2018-12-31T01:18:36.214Z,10.01
2018-12-31T01:19:36.217Z,10.01
2018-12-31T01:21:29.126Z,9.79
2018-12-31T01:22:29.136Z,9.87
2018-12-31T01:24:22.030Z,9.89
2018-12-31T01:25:22.045Z,9.76
2018-12-31T01:27:14.956Z,9.90
2018-12-31T01:28:14.966Z,9.90
2018-12-31T01:30:07.860Z,9.87
2018-12-31T01:31:07.951Z,9.86
2018-12-31T01:33:00.778Z,9.96
2018-12-31T01:34:00.786Z,10.01
2018-12-31T01:35:53.689Z,9.96
2018-12-31T01:36:53.710Z,9.91
2018-12-31T01:38:46.615Z,9.94
2018-12-31T01:39:46.623Z,9.91
2018-12-31T01:41:39.527Z,9.91
2018-12-31T01:42:39.539Z,9.89
2018-12-31T01:44:32.451Z,9.99
2018-12-31T01:45:32.455Z,9.96
2018-12-31T01:47:25.373Z,9.93
2018-12-31T01:48:25.369Z,9.87
2018-12-31T01:50:18.271Z,10.05
2018-12-31T01:51:18.282Z,10.09
2018-12-31T01:53:11.190Z,9.93
2018-12-31T01:54:11.195Z,10.04
2018-12-31T01:56:04.093Z,10.05
2018-12-31T01:57:04.107Z,10.02
2018-12-31T01:58:57.017Z,10.09
2018-12-31T01:59:57.024Z,10.05
2018-12-31T02:01:49.927Z,10.07
2018-12-31T02:02:49.941Z,10.04
2018-12-31T02:04:42.862Z,10.15
2018-12-31T02:05:42.864Z,10.22
2018-12-31T02:07:35.769Z,10.25
2018-12-31T02:08:35.780Z,10.17
2018-12-31T02:10:28.704Z,10.25
2018-12-31T02:11:28.692Z,10.20
2018-12-31T02:13:21.598Z,10.23
2018-12-31T02:14:21.601Z,10.15
2018-12-31T02:16:14.498Z,10.12
2018-12-31T02:17:14.511Z,10.11
2018-12-31T02:19:07.457Z,10.07
2018-12-31T02:20:07.427Z,10.12
2018-12-31T02:22:00.370Z,10.20
2018-12-31T02:23:00.347Z,10.09
2018-12-31T02:24:53.248Z,10.08
2018-12-31T02:25:53.254Z,10.12
2018-12-31T02:27:46.156Z,10.18
2018-12-31T02:28:46.171Z,10.23
2018-12-31T02:30:39.080Z,10.27
2018-12-31T02:31:39.084Z,10.17
2018-12-31T02:33:31.985Z,10.22
2018-12-31T02:34:32.000Z,10.08
2018-12-31T02:36:24.909Z,10.22
2018-12-31T02:37:24.914Z,10.22
2018-12-31T02:39:17.826Z,10.23
2018-12-31T02:40:17.834Z,10.20
2018-12-31T02:42:10.731Z,10.14
2018-12-31T02:43:10.744Z,10.11
2018-12-31T02:45:03.649Z,10.08
2018-12-31T02:46:03.657Z,10.12
2018-12-31T02:47:56.569Z,10.07
2018-12-31T02:48:56.576Z,10.11
2018-12-31T02:50:49.486Z,10.05
2018-12-31T02:51:49.489Z,9.99
2018-12-31T02:53:42.386Z,9.99
2018-12-31T02:54:42.465Z,10.05
2018-12-31T02:56:35.308Z,9.93
2018-12-31T02:57:35.313Z,9.94
2018-12-31T02:59:28.213Z,9.94
2018-12-31T03:00:28.226Z,9.99
2018-12-31T03:02:21.139Z,9.94
2018-12-31T03:03:21.162Z,9.96
2018-12-31T03:05:14.065Z,9.93
2018-12-31T03:06:14.089Z,9.97
2018-12-31T03:08:06.958Z,9.96
2018-12-31T03:09:06.971Z,9.99
2018-12-31T03:10:59.894Z,10.04
2018-12-31T03:11:59.887Z,10.04
2018-12-31T03:13:52.792Z,10.05
2018-12-31T03:14:52.804Z,10.08
2018-12-31T03:16:45.714Z,10.09
2018-12-31T03:17:45.719Z,10.04
2018-12-31T03:19:38.624Z,10.08
2018-12-31T03:20:38.633Z,10.08
2018-12-31T03:22:31.546Z,10.22
2018-12-31T03:23:31.549Z,10.22
2018-12-31T03:25:24.453Z,10.26
2018-12-31T03:26:24.463Z,10.30
2018-12-31T03:28:17.370Z,10.26
2018-12-31T03:29:17.376Z,10.25
2018-12-31T03:31:10.286Z,10.38
2018-12-31T03:32:10.313Z,10.29
2018-12-31T03:34:03.195Z,10.30
2018-12-31T03:35:03.204Z,10.33
2018-12-31T03:36:56.116Z,10.26
2018-12-31T03:37:56.119Z,10.29
2018-12-31T03:39:49.068Z,10.29
2018-12-31T03:40:49.046Z,10.33
2018-12-31T03:42:41.956Z,10.45
2018-12-31T03:43:41.957Z,10.34
2018-12-31T03:45:34.859Z,10.44
2018-12-31T03:46:34.873Z,10.42
2018-12-31T03:48:27.777Z,10.41
2018-12-31T03:49:27.782Z,10.40
2018-12-31T03:51:20.694Z,10.41
2018-12-31T03:52:20.699Z,10.40
2018-12-31T03:54:13.600Z,10.47
2018-12-31T03:55:13.616Z,10.48
2018-12-31T03:57:06.531Z,10.60
2018-12-31T03:58:06.533Z,10.53
2018-12-31T03:59:59.430Z,10.53
2018-12-31T04:00:59.448Z,10.67
2018-12-31T04:02:52.355Z,10.53
2018-12-31T04:03:52.362Z,10.55
2018-12-31T04:05:45.257Z,10.56
2018-12-31T04:06:45.279Z,10.63
2018-12-31T04:08:38.182Z,10.59
2018-12-31T04:09:38.203Z,10.64
2018-12-31T04:11:31.129Z,10.60
2018-12-31T04:12:31.109Z,10.68
2018-12-31T04:14:24.006Z,10.67
2018-12-31T04:15:24.018Z,10.71
2018-12-31T04:17:16.927Z,10.67
2018-12-31T04:18:16.932Z,10.60
2018-12-31T04:20:09.838Z,10.63
2018-12-31T04:21:09.852Z,10.63
2018-12-31T04:23:02.757Z,10.70
2018-12-31T04:24:02.761Z,10.67
2018-12-31T04:25:55.659Z,10.63
2018-12-31T04:26:55.674Z,10.61
2018-12-31T04:28:48.583Z,10.67
2018-12-31T04:29:48.590Z,10.67
2018-12-31T04:31:41.488Z,10.63
2018-12-31T04:32:41.501Z,10.67
2018-12-31T04:34:34.410Z,10.67
2018-12-31T04:35:34.419Z,10.67
2018-12-31T04:37:27.328Z,10.63
2018-12-31T04:38:27.337Z,10.66
2018-12-31T04:40:20.232Z,10.63
2018-12-31T04:41:20.248Z,10.64
2018-12-31T04:43:13.162Z,10.70
2018-12-31T04:44:13.162Z,10.73
2018-12-31T04:46:06.080Z,10.71
2018-12-31T04:47:06.078Z,10.71
2018-12-31T04:48:58.988Z,10.76
2018-12-31T04:49:58.995Z,10.74
2018-12-31T04:51:51.897Z,10.71
2018-12-31T04:52:51.906Z,10.66
2018-12-31T04:54:44.824Z,10.78
2018-12-31T04:55:44.819Z,10.71
2018-12-31T04:57:37.744Z,10.73
2018-12-31T04:58:37.773Z,10.68
2018-12-31T05:00:30.639Z,10.71
2018-12-31T05:01:30.645Z,10.76
2018-12-31T05:03:23.558Z,10.85
2018-12-31T05:04:23.559Z,10.81
2018-12-31T05:06:16.466Z,10.82
2018-12-31T05:07:16.474Z,10.74
2018-12-31T05:09:09.382Z,10.82
2018-12-31T05:10:09.387Z,10.81
2018-12-31T05:12:02.286Z,10.86
2018-12-31T05:13:02.305Z,10.84
2018-12-31T05:14:55.212Z,10.81
2018-12-31T05:15:55.218Z,10.92
2018-12-31T05:17:48.118Z,10.88
2018-12-31T05:18:48.134Z,10.84
2018-12-31T05:20:41.042Z,10.89
2018-12-31T05:21:41.049Z,10.89
2018-12-31T05:23:34.077Z,11.00
2018-12-31T05:24:33.966Z,10.99
2018-12-31T05:26:26.865Z,10.96
2018-12-31T05:27:26.898Z,10.97
2018-12-31T05:29:19.788Z,10.92
2018-12-31T05:30:19.794Z,10.84
2018-12-31T05:32:12.703Z,10.79
2018-12-31T05:33:12.717Z,10.82
2018-12-31T05:35:05.628Z,10.78
2018-12-31T05:36:05.634Z,10.81
2018-12-31T05:37:58.611Z,10.89
2018-12-31T05:38:58.548Z,10.76
2018-12-31T05:40:51.460Z,10.76
2018-12-31T05:41:51.467Z,10.74
2018-12-31T05:43:44.364Z,10.79
2018-12-31T05:44:44.379Z,10.78
2018-12-31T05:46:37.289Z,10.84
2018-12-31T05:47:37.297Z,10.70
2018-12-31T05:49:30.206Z,10.74
2018-12-31T05:50:30.218Z,10.76
2018-12-31T05:52:23.162Z,10.79
2018-12-31T05:53:23.128Z,10.73
2018-12-31T05:55:16.032Z,10.78
2018-12-31T05:56:16.040Z,10.74
2018-12-31T05:58:08.940Z,10.78
2018-12-31T05:59:08.955Z,10.81
2018-12-31T06:01:01.867Z,10.76
2018-12-31T06:02:01.873Z,10.76
2018-12-31T06:03:54.777Z,10.91
2018-12-31T06:04:54.788Z,10.85
2018-12-31T06:06:47.696Z,10.79
2018-12-31T06:07:47.702Z,10.78
2018-12-31T06:09:40.620Z,10.76
2018-12-31T06:10:40.617Z,10.73
2018-12-31T06:12:33.521Z,10.66
2018-12-31T06:13:33.535Z,10.71
2018-12-31T06:15:26.444Z,10.76
2018-12-31T06:16:26.449Z,10.74
2018-12-31T06:18:19.349Z,10.84
2018-12-31T06:19:19.364Z,10.74
2018-12-31T06:21:12.275Z,10.86
2018-12-31T06:22:12.277Z,10.76
2018-12-31T06:24:05.184Z,10.84
2018-12-31T06:25:05.225Z,10.88
2018-12-31T06:26:58.101Z,10.88
2018-12-31T06:27:58.106Z,10.85
2018-12-31T06:29:51.006Z,10.92
2018-12-31T06:30:51.020Z,10.97
2018-12-31T06:32:43.950Z,10.96
2018-12-31T06:33:43.949Z,10.99
2018-12-31T06:35:36.845Z,11.02
2018-12-31T06:36:36.847Z,10.91
2018-12-31T06:38:29.747Z,10.99
2018-12-31T06:39:29.759Z,10.96
2018-12-31T06:41:22.666Z,11.02
2018-12-31T06:42:22.672Z,11.00
2018-12-31T06:44:15.567Z,11.03
2018-12-31T06:45:15.589Z,11.09
2018-12-31T06:47:08.500Z,11.04
2018-12-31T06:48:08.507Z,11.11
2018-12-31T06:50:01.414Z,11.14
2018-12-31T06:51:01.425Z,11.11
2018-12-31T06:52:54.332Z,11.19
2018-12-31T06:53:54.337Z,11.14
2018-12-31T06:55:47.235Z,11.17
2018-12-31T06:56:47.250Z,11.17
2018-12-31T06:58:40.174Z,11.11
2018-12-31T06:59:40.163Z,11.07
2018-12-31T07:01:33.091Z,11.10
2018-12-31T07:02:33.076Z,11.09
2018-12-31T07:04:25.975Z,11.07
2018-12-31T07:05:25.989Z,11.06
2018-12-31T07:07:18.900Z,11.03
2018-12-31T07:08:18.907Z,10.97
2018-12-31T07:10:11.805Z,10.96
2018-12-31T07:11:11.823Z,11.02
2018-12-31T07:13:04.730Z,11.04
2018-12-31T07:14:04.737Z,11.03
2018-12-31T07:15:57.636Z,11.15
2018-12-31T07:16:57.659Z,11.07
2018-12-31T07:18:50.577Z,11.15
2018-12-31T07:19:50.565Z,11.07
2018-12-31T07:21:43.468Z,10.97
2018-12-31T07:22:43.479Z,11.00
2018-12-31T07:24:36.390Z,10.96
2018-12-31T07:25:36.396Z,10.91
2018-12-31T07:27:29.302Z,10.86
2018-12-31T07:28:29.314Z,10.85
2018-12-31T07:30:22.211Z,10.88
2018-12-31T07:31:22.226Z,10.82
2018-12-31T07:33:15.198Z,10.78
2018-12-31T07:34:15.142Z,10.79
2018-12-31T07:36:08.042Z,10.74
2018-12-31T07:37:08.056Z,10.79
2018-12-31T07:39:00.963Z,10.66
2018-12-31T07:40:01.002Z,10.63
2018-12-31T07:41:53.902Z,10.67
2018-12-31T07:42:53.925Z,10.64
2018-12-31T07:44:46.795Z,10.66
2018-12-31T07:45:46.800Z,10.64
2018-12-31T07:47:39.702Z,10.82
2018-12-31T07:48:39.714Z,10.68
2018-12-31T07:50:32.644Z,10.73
2018-12-31T07:51:32.645Z,10.64
2018-12-31T07:53:25.555Z,10.76
2018-12-31T07:54:25.603Z,10.81
2018-12-31T07:56:18.463Z,10.76
2018-12-31T07:57:18.477Z,10.81
2018-12-31T07:59:11.382Z,10.89
2018-12-31T08:00:11.390Z,10.76
2018-12-31T08:02:04.287Z,10.88
2018-12-31T08:03:04.304Z,10.88
2018-12-31T08:04:57.208Z,10.91
2018-12-31T08:05:57.214Z,10.92
2018-12-31T08:07:50.116Z,10.92
2018-12-31T08:08:50.191Z,11.04
2018-12-31T08:10:43.039Z,11.03
2018-12-31T08:11:43.047Z,11.02
2018-12-31T08:13:35.955Z,10.99
2018-12-31T08:14:35.964Z,10.99
2018-12-31T08:16:28.869Z,10.99
2018-12-31T08:17:28.886Z,10.99
2018-12-31T08:19:21.794Z,10.96
2018-12-31T08:20:21.802Z,10.94
2018-12-31T08:22:14.703Z,10.96
2018-12-31T08:23:14.718Z,10.94
2018-12-31T08:25:07.623Z,10.86
2018-12-31T08:26:07.634Z,10.94
2018-12-31T08:28:00.534Z,11.00
2018-12-31T08:29:00.548Z,11.03
2018-12-31T08:30:53.459Z,10.97
2018-12-31T08:31:53.465Z,11.02
2018-12-31T08:33:46.383Z,10.97
2018-12-31T08:34:46.378Z,10.96
2018-12-31T08:36:39.280Z,11.03
2018-12-31T08:37:39.295Z,10.84
2018-12-31T08:39:32.202Z,10.89
2018-12-31T08:40:32.208Z,10.79
2018-12-31T08:42:25.109Z,10.92
2018-12-31T08:43:25.124Z,10.86
2018-12-31T08:45:18.035Z,10.94
2018-12-31T08:46:18.042Z,10.91
2018-12-31T08:48:10.944Z,11.00
2018-12-31T08:49:10.958Z,11.00
2018-12-31T08:51:03.868Z,11.04
2018-12-31T08:52:03.874Z,10.96
2018-12-31T08:53:56.776Z,10.99
2018-12-31T08:54:56.793Z,11.03
2018-12-31T08:56:49.703Z,11.04
2018-12-31T08:57:49.706Z,11.03
2018-12-31T08:59:42.618Z,11.04
2018-12-31T09:00:42.621Z,11.07
2018-12-31T09:02:35.521Z,11.03
2018-12-31T09:03:35.536Z,11.00
2018-12-31T09:05:28.448Z,11.17
2018-12-31T09:06:28.461Z,11.04
2018-12-31T09:08:21.375Z,11.14
2018-12-31T09:09:21.370Z,11.17
2018-12-31T09:11:14.281Z,11.11
2018-12-31T09:12:14.284Z,11.15
2018-12-31T09:14:07.184Z,11.03
2018-12-31T09:15:07.209Z,11.07
2018-12-31T09:17:00.111Z,11.04
2018-12-31T09:18:00.117Z,10.94
2018-12-31T09:19:53.022Z,10.91
2018-12-31T09:20:53.036Z,11.00
2018-12-31T09:22:45.953Z,11.03
2018-12-31T09:23:45.949Z,11.04
2018-12-31T09:25:38.857Z,11.09
2018-12-31T09:26:38.863Z,10.96
2018-12-31T09:28:31.769Z,11.14
2018-12-31T09:29:31.780Z,11.18
2018-12-31T09:31:24.687Z,11.10
2018-12-31T09:32:24.695Z,11.15
2018-12-31T09:34:17.595Z,11.11
2018-12-31T09:35:17.609Z,11.17
2018-12-31T09:37:10.521Z,11.18
2018-12-31T09:38:10.525Z,11.17
2018-12-31T09:40:03.432Z,11.18
2018-12-31T09:41:03.444Z,11.22
2018-12-31T09:42:56.353Z,11.28
2018-12-31T09:43:56.364Z,11.33
2018-12-31T09:45:49.391Z,11.32
2018-12-31T09:46:49.276Z,11.40
2018-12-31T09:48:42.181Z,11.39
2018-12-31T09:49:42.194Z,11.37
2018-12-31T09:51:35.099Z,11.40
2018-12-31T09:52:35.108Z,11.42
2018-12-31T09:54:28.008Z,11.44
2018-12-31T09:55:28.026Z,11.46
2018-12-31T09:57:20.935Z,11.46
2018-12-31T09:58:20.941Z,11.58
2018-12-31T10:00:14.345Z,11.35
2018-12-31T10:01:14.354Z,11.51
2018-12-31T10:03:07.269Z,11.39
2018-12-31T10:04:07.269Z,11.49
2018-12-31T10:06:00.168Z,11.35
2018-12-31T10:07:00.185Z,11.32
2018-12-31T10:08:53.090Z,11.18
2018-12-31T10:09:53.098Z,11.21
2018-12-31T10:11:46.011Z,11.28
2018-12-31T10:12:46.016Z,11.35
2018-12-31T10:14:38.914Z,11.32
2018-12-31T10:15:38.930Z,11.42
2018-12-31T10:17:31.838Z,11.39
2018-12-31T10:18:31.846Z,11.54
2018-12-31T10:20:24.746Z,11.51
2018-12-31T10:21:24.762Z,11.49
2018-12-31T10:23:17.670Z,11.43
2018-12-31T10:24:17.678Z,11.46
2018-12-31T10:26:10.579Z,11.47
2018-12-31T10:27:10.594Z,11.42
2018-12-31T10:29:03.503Z,11.43
2018-12-31T10:30:03.515Z,11.43
2018-12-31T10:31:56.520Z,11.40
2018-12-31T10:32:56.427Z,11.49
2018-12-31T10:34:49.333Z,11.47
2018-12-31T10:35:49.348Z,11.51
2018-12-31T10:37:42.259Z,11.46
2018-12-31T10:38:42.442Z,11.47
2018-12-31T10:40:35.173Z,11.47
2018-12-31T10:41:35.184Z,11.57
2018-12-31T10:43:28.094Z,11.42
2018-12-31T10:44:28.102Z,11.43
2018-12-31T10:46:21.003Z,11.42
2018-12-31T10:47:21.019Z,11.43
2018-12-31T10:49:13.927Z,11.33
2018-12-31T10:50:13.936Z,11.37
2018-12-31T10:52:08.009Z,11.43
2018-12-31T10:53:06.854Z,11.37
2018-12-31T10:54:59.760Z,11.44
2018-12-31T10:55:59.768Z,11.46
2018-12-31T10:57:52.678Z,11.52
2018-12-31T10:58:52.691Z,11.57
2018-12-31T11:00:45.587Z,11.54
2018-12-31T11:01:45.600Z,11.65
2018-12-31T11:03:38.510Z,11.72
2018-12-31T11:04:38.517Z,11.75
2018-12-31T11:06:31.419Z,11.73
2018-12-31T11:07:31.433Z,11.72
2018-12-31T11:09:24.349Z,11.72
2018-12-31T11:10:24.355Z,11.70
2018-12-31T11:12:17.285Z,11.60
2018-12-31T11:13:17.277Z,11.58
2018-12-31T11:15:10.184Z,11.60
2018-12-31T11:16:10.193Z,11.54
2018-12-31T11:18:04.088Z,11.49
2018-12-31T11:19:04.102Z,11.43
2018-12-31T11:20:57.027Z,11.36
2018-12-31T11:21:57.036Z,11.33
2018-12-31T11:23:49.950Z,11.32
2018-12-31T11:24:49.958Z,11.33
2018-12-31T11:26:42.862Z,11.37
2018-12-31T11:27:42.877Z,11.27
2018-12-31T11:29:35.787Z,11.40
2018-12-31T11:30:35.793Z,11.47
2018-12-31T11:32:28.695Z,11.58
2018-12-31T11:33:28.709Z,11.49
2018-12-31T11:35:21.618Z,11.47
2018-12-31T11:36:21.627Z,11.40
2018-12-31T11:38:14.533Z,11.54
2018-12-31T11:39:14.549Z,11.55
2018-12-31T11:41:07.456Z,11.46
2018-12-31T11:42:07.464Z,11.47
2018-12-31T11:44:00.915Z,11.57
2018-12-31T11:45:00.380Z,11.47
2018-12-31T11:46:53.294Z,11.51
2018-12-31T11:47:53.445Z,11.49
2018-12-31T11:49:46.204Z,11.51
2018-12-31T11:50:46.213Z,11.51
2018-12-31T11:52:39.113Z,11.61
2018-12-31T11:53:39.128Z,11.51
2018-12-31T11:55:32.037Z,11.46
2018-12-31T11:56:32.050Z,11.46
2018-12-31T11:58:24.955Z,11.65
2018-12-31T11:59:24.963Z,11.73
2018-12-31T12:01:17.876Z,11.76
2018-12-31T12:02:23.500Z,11.80
2018-12-31T12:04:10.784Z,11.86
2018-12-31T12:05:10.799Z,11.86
2018-12-31T12:07:03.712Z,11.95
2018-12-31T12:08:03.717Z,11.96
2018-12-31T12:09:56.622Z,11.86
2018-12-31T12:10:56.720Z,11.80
2018-12-31T12:12:49.552Z,11.86
2018-12-31T12:13:49.554Z,11.94
2018-12-31T12:15:42.460Z,11.82
2018-12-31T12:16:42.470Z,11.78
2018-12-31T12:18:35.384Z,11.78
2018-12-31T12:19:35.401Z,11.78
2018-12-31T12:21:28.310Z,11.73
2018-12-31T12:22:28.319Z,11.73
2018-12-31T12:24:21.221Z,11.57
2018-12-31T12:25:21.236Z,11.57
2018-12-31T12:27:14.147Z,11.57
2018-12-31T12:28:14.154Z,11.51
2018-12-31T12:30:07.056Z,11.47
2018-12-31T12:31:07.069Z,11.43
2018-12-31T12:32:59.982Z,11.46
2018-12-31T12:33:59.991Z,11.47
2018-12-31T12:35:52.888Z,11.51
2018-12-31T12:36:52.903Z,11.51
2018-12-31T12:38:45.829Z,11.49
2018-12-31T12:39:45.836Z,11.55
2018-12-31T12:41:38.744Z,11.57
2018-12-31T12:42:38.758Z,11.61
2018-12-31T12:44:31.654Z,11.60
2018-12-31T12:45:31.671Z,11.58
2018-12-31T12:47:24.581Z,11.67
2018-12-31T12:48:24.585Z,11.60
2018-12-31T12:50:17.488Z,11.65
2018-12-31T12:51:17.502Z,11.62
2018-12-31T12:53:10.415Z,11.65
2018-12-31T12:54:10.424Z,11.62
2018-12-31T12:56:03.324Z,11.52
2018-12-31T12:57:03.341Z,11.46
2018-12-31T12:58:56.254Z,11.52
2018-12-31T12:59:56.264Z,11.47
2018-12-31T13:01:49.188Z,11.62
2018-12-31T13:02:49.180Z,11.57
2018-12-31T13:04:42.084Z,11.57
2018-12-31T13:05:42.104Z,11.57
2018-12-31T13:07:35.013Z,11.62
2018-12-31T13:08:35.021Z,11.61
2018-12-31T13:10:27.924Z,11.72
2018-12-31T13:11:27.937Z,11.72
2018-12-31T13:13:20.844Z,11.78
2018-12-31T13:14:20.855Z,11.75
2018-12-31T13:16:13.755Z,11.75
2018-12-31T13:17:13.771Z,11.85
2018-12-31T13:19:06.681Z,11.85
2018-12-31T13:20:06.691Z,11.86
2018-12-31T13:21:59.610Z,11.83
2018-12-31T13:22:59.669Z,11.85
2018-12-31T13:24:52.618Z,11.76
2018-12-31T13:25:52.536Z,11.75
2018-12-31T13:27:45.445Z,11.69
2018-12-31T13:28:45.464Z,11.75
2018-12-31T13:30:38.362Z,11.78
2018-12-31T13:31:38.376Z,11.76
2018-12-31T13:33:31.288Z,11.83
2018-12-31T13:34:31.297Z,11.86
2018-12-31T13:36:25.259Z,11.90
2018-12-31T13:37:24.243Z,11.96
2018-12-31T13:39:17.155Z,11.95
2018-12-31T13:40:17.164Z,11.98
2018-12-31T13:42:10.063Z,12.12
2018-12-31T13:43:10.097Z,12.10
2018-12-31T13:45:04.481Z,12.13
2018-12-31T13:46:03.565Z,12.17
2018-12-31T13:47:55.906Z,12.14
2018-12-31T13:48:55.916Z,12.17
2018-12-31T13:50:48.820Z,12.12
2018-12-31T13:51:48.834Z,11.98
2018-12-31T13:53:41.747Z,12.13
2018-12-31T13:54:41.750Z,12.14
2018-12-31T13:56:34.658Z,12.27
2018-12-31T13:57:34.671Z,12.23
2018-12-31T13:59:27.585Z,12.21
2018-12-31T14:00:27.595Z,12.16
2018-12-31T14:02:20.496Z,12.01
2018-12-31T14:03:20.566Z,12.09
2018-12-31T14:05:13.422Z,11.98
2018-12-31T14:06:13.428Z,11.95
2018-12-31T14:08:06.334Z,11.94
2018-12-31T14:09:06.349Z,11.88
2018-12-31T14:10:59.283Z,11.86
2018-12-31T14:11:59.266Z,11.88
2018-12-31T14:13:52.209Z,11.88
2018-12-31T14:14:52.216Z,11.96
2018-12-31T14:16:45.120Z,11.91
2018-12-31T14:17:45.134Z,12.02
2018-12-31T14:19:38.053Z,12.14
2018-12-31T14:20:38.060Z,12.13
2018-12-31T14:22:30.961Z,12.12
2018-12-31T14:23:30.979Z,12.20
2018-12-31T14:25:23.886Z,12.24
2018-12-31T14:26:23.894Z,12.34
2018-12-31T14:28:16.803Z,12.34
2018-12-31T14:29:16.815Z,12.28
2018-12-31T14:31:09.725Z,12.32
2018-12-31T14:32:09.735Z,12.28
2018-12-31T14:34:02.673Z,12.14
2018-12-31T14:35:02.650Z,12.16
2018-12-31T14:36:55.557Z,12.20
2018-12-31T14:37:55.571Z,12.19
2018-12-31T14:39:48.486Z,12.16
2018-12-31T14:40:48.491Z,12.13
2018-12-31T14:42:41.401Z,12.10
2018-12-31T14:43:41.418Z,11.99
2018-12-31T14:45:34.328Z,12.07
2018-12-31T14:46:34.335Z,11.98
2018-12-31T14:48:27.240Z,11.86
2018-12-31T14:49:27.255Z,11.85
2018-12-31T14:51:20.162Z,11.86
2018-12-31T14:52:20.170Z,11.70
2018-12-31T14:54:13.100Z,11.83
2018-12-31T14:55:13.087Z,11.88
2018-12-31T14:57:05.989Z,11.88
2018-12-31T14:58:06.002Z,11.86
2018-12-31T14:59:58.910Z,11.76
2018-12-31T15:00:58.917Z,11.86
2018-12-31T15:02:51.825Z,11.70
2018-12-31T15:03:51.838Z,11.61
2018-12-31T15:05:44.749Z,11.64
2018-12-31T15:06:44.756Z,11.57
2018-12-31T15:08:37.655Z,11.60
2018-12-31T15:09:37.671Z,11.58
2018-12-31T15:11:30.603Z,11.65
2018-12-31T15:12:30.597Z,11.57
2018-12-31T15:14:23.501Z,11.57
2018-12-31T15:15:23.558Z,11.58
2018-12-31T15:17:16.426Z,11.55
2018-12-31T15:18:16.445Z,11.60
2018-12-31T15:20:09.342Z,11.61
2018-12-31T15:21:09.350Z,11.61
2018-12-31T15:23:02.248Z,11.62
2018-12-31T15:24:02.261Z,11.60
2018-12-31T15:25:55.172Z,11.58
2018-12-31T15:26:55.181Z,11.57
2018-12-31T15:28:48.084Z,11.64
2018-12-31T15:29:48.098Z,11.64
2018-12-31T15:31:41.012Z,11.72
2018-12-31T15:32:41.013Z,11.73
2018-12-31T15:34:33.914Z,11.70
2018-12-31T15:35:33.929Z,11.73
2018-12-31T15:37:27.333Z,11.76
2018-12-31T15:38:27.352Z,11.80
2018-12-31T15:40:20.242Z,11.73
2018-12-31T15:41:20.261Z,11.73
2018-12-31T15:43:13.172Z,11.64
2018-12-31T15:44:13.171Z,11.64
2018-12-31T15:46:06.081Z,11.58
2018-12-31T15:47:06.091Z,11.51
2018-12-31T15:48:58.989Z,11.60
2018-12-31T15:49:59.004Z,11.62
2018-12-31T15:51:51.917Z,11.61
2018-12-31T15:52:51.933Z,11.65
2018-12-31T15:54:44.830Z,11.76
2018-12-31T15:55:44.841Z,11.73
2018-12-31T15:57:37.750Z,11.73
2018-12-31T15:58:37.758Z,11.70
2018-12-31T16:00:30.658Z,11.73
2018-12-31T16:01:30.677Z,11.67
2018-12-31T16:03:23.585Z,11.76
2018-12-31T16:04:23.591Z,11.80
2018-12-31T16:06:16.499Z,11.72
2018-12-31T16:07:16.515Z,11.75
2018-12-31T16:09:09.427Z,11.73
2018-12-31T16:10:09.434Z,11.73
2018-12-31T16:12:02.342Z,11.78
2018-12-31T16:13:02.415Z,11.78
2018-12-31T16:14:55.254Z,11.73
2018-12-31T16:15:55.267Z,11.72
2018-12-31T16:17:48.673Z,11.70
2018-12-31T16:18:48.679Z,11.69
2018-12-31T16:20:41.581Z,11.65
2018-12-31T16:21:41.614Z,11.67
2018-12-31T16:23:34.510Z,11.76
2018-12-31T16:24:34.513Z,11.73
2018-12-31T16:26:27.415Z,11.65
2018-12-31T16:27:27.429Z,11.75
2018-12-31T16:29:20.340Z,11.73
2018-12-31T16:30:20.345Z,11.73
2018-12-31T16:32:13.290Z,11.73
2018-12-31T16:33:13.261Z,11.65
2018-12-31T16:35:06.174Z,11.75
2018-12-31T16:36:06.184Z,11.75
2018-12-31T16:37:59.094Z,11.70
2018-12-31T16:38:59.146Z,11.60
2018-12-31T16:40:52.004Z,11.70
2018-12-31T16:41:52.020Z,11.70
2018-12-31T16:43:44.938Z,11.76
2018-12-31T16:44:44.933Z,11.75
2018-12-31T16:46:37.841Z,11.70
2018-12-31T16:47:37.852Z,11.69
2018-12-31T16:49:30.761Z,11.70
2018-12-31T16:50:30.770Z,11.76
2018-12-31T16:52:23.674Z,11.76
2018-12-31T16:53:23.685Z,11.78
2018-12-31T16:55:16.596Z,11.76
2018-12-31T16:56:16.603Z,11.80
2018-12-31T16:58:09.513Z,11.70
2018-12-31T16:59:09.520Z,11.75
2018-12-31T17:01:02.431Z,11.76
2018-12-31T17:02:02.439Z,11.73
2018-12-31T17:03:55.349Z,11.78
2018-12-31T17:04:55.356Z,11.76
2018-12-31T17:06:48.274Z,11.65
2018-12-31T17:07:48.408Z,11.60
2018-12-31T17:09:41.203Z,11.73
2018-12-31T17:10:41.211Z,11.72
2018-12-31T17:12:34.110Z,11.78
2018-12-31T17:13:34.125Z,11.70
2018-12-31T17:15:27.036Z,11.65
2018-12-31T17:16:27.043Z,11.79
2018-12-31T17:18:19.954Z,11.78
2018-12-31T17:19:19.962Z,11.72
2018-12-31T17:21:12.865Z,11.70
2018-12-31T17:22:12.880Z,11.72
2018-12-31T17:24:05.792Z,11.72
2018-12-31T17:25:05.799Z,11.70
2018-12-31T17:26:58.707Z,11.76
2018-12-31T17:27:58.714Z,11.78
2018-12-31T17:29:51.626Z,11.75
2018-12-31T17:30:51.635Z,11.76
2018-12-31T17:32:44.540Z,11.80
2018-12-31T17:33:44.552Z,11.76
2018-12-31T17:35:37.463Z,11.72
2018-12-31T17:36:37.468Z,11.76
2018-12-31T17:38:30.372Z,11.73
2018-12-31T17:39:30.386Z,11.69
2018-12-31T17:41:23.295Z,11.75
2018-12-31T17:42:23.303Z,11.65
2018-12-31T17:44:16.211Z,11.64
2018-12-31T17:45:22.990Z,11.64
2018-12-31T17:47:09.212Z,11.64
2018-12-31T17:48:09.152Z,11.58
2018-12-31T17:50:02.043Z,11.60
2018-12-31T17:51:02.051Z,11.65
2018-12-31T17:52:54.971Z,11.79
2018-12-31T17:53:55.003Z,11.73
2018-12-31T17:55:47.891Z,11.73
2018-12-31T17:56:47.901Z,11.64
2018-12-31T17:58:40.855Z,11.62
2018-12-31T17:59:40.832Z,11.67
2018-12-31T18:01:33.754Z,11.58
2018-12-31T18:02:33.753Z,11.58
2018-12-31T18:04:26.682Z,11.42
2018-12-31T18:05:26.670Z,11.46
2018-12-31T18:07:19.572Z,11.43
2018-12-31T18:08:19.586Z,11.54
2018-12-31T18:10:12.496Z,11.49
2018-12-31T18:11:12.503Z,11.46
2018-12-31T18:13:05.401Z,11.42
2018-12-31T18:14:05.416Z,11.47
2018-12-31T18:15:58.329Z,11.49
2018-12-31T18:16:58.333Z,11.43
2018-12-31T18:18:51.240Z,11.47
2018-12-31T18:19:51.251Z,11.58
2018-12-31T18:21:44.162Z,11.52
2018-12-31T18:22:44.169Z,11.40
2018-12-31T18:24:37.072Z,11.44
2018-12-31T18:25:37.097Z,11.42
2018-12-31T18:27:29.999Z,11.49
2018-12-31T18:28:30.004Z,11.39
2018-12-31T18:30:22.915Z,11.44
2018-12-31T18:31:22.921Z,11.47
2018-12-31T18:33:15.913Z,11.44
2018-12-31T18:34:15.839Z,11.43
2018-12-31T18:36:08.754Z,11.47